Time;durP1;ratioP1;P1;durP2;ratioP2;P2;SDS_P1;SDS_P2;PMS_P1;PMS_P2;Temp;Humidity;BMP_temperature;BMP_pressure;BME280_temperature;BME280_humidity;BME280_pressure;Samples;Min_cycle;Max_cycle;Signal;HPM_P1;HPM_P2
2022/07/18 00:01:32;;;;;;;0.00;0.00;;;18.80;73.50;;;;;;5029937;28;20045;-67
2022/07/18 00:03:58;;;;;;;0.00;0.00;;;18.80;73.30;;;;;;5029354;28;20537;-67
2022/07/18 00:06:24;;;;;;;0.00;0.00;;;18.80;73.00;;;;;;5028782;28;20071;-67
2022/07/18 00:08:49;;;;;;;0.00;0.00;;;18.80;73.80;;;;;;5029779;28;20053;-67
2022/07/18 00:11:15;;;;;;;0.00;0.00;;;18.80;73.60;;;;;;5030027;28;20041;-66
2022/07/18 00:13:41;;;;;;;0.00;0.00;;;18.80;73.30;;;;;;5028978;28;20056;-67
2022/07/18 00:16:06;;;;;;;0.00;0.00;;;18.70;73.40;;;;;;5029396;28;20045;-67
2022/07/18 00:18:32;;;;;;;0.00;0.00;;;18.70;73.10;;;;;;5029535;28;20453;-67
2022/07/18 00:20:58;;;;;;;0.00;0.00;;;18.70;73.00;;;;;;5012131;28;20077;-66
2022/07/18 00:23:24;;;;;;;0.00;0.00;;;18.70;73.10;;;;;;5028984;28;20048;-67
2022/07/18 00:25:50;;;;;;;0.00;0.00;;;18.60;73.40;;;;;;5029514;28;20045;-67
2022/07/18 00:28:16;;;;;;;0.00;0.00;;;18.60;73.60;;;;;;5028877;28;20042;-67
2022/07/18 00:30:42;;;;;;;0.00;0.00;;;18.50;73.20;;;;;;5027903;28;20079;-67
2022/07/18 00:33:08;;;;;;;0.00;0.00;;;18.50;74.20;;;;;;5027836;28;20042;-67
2022/07/18 00:35:34;;;;;;;0.00;0.00;;;18.50;74.10;;;;;;5029406;28;20045;-66
2022/07/18 00:38:01;;;;;;;0.00;0.00;;;18.50;74.00;;;;;;5011438;28;20119;-67
2022/07/18 00:40:28;;;;;;;0.00;0.00;;;18.40;74.10;;;;;;5029233;28;20482;-67
2022/07/18 00:42:53;;;;;;;0.00;0.00;;;18.50;74.00;;;;;;5028577;28;20510;-67
2022/07/18 00:45:19;;;;;;;0.00;0.00;;;18.40;73.80;;;;;;5011155;28;20048;-67
2022/07/18 00:47:45;;;;;;;0.00;0.00;;;18.40;73.80;;;;;;5029243;28;20048;-67
2022/07/18 00:50:11;;;;;;;0.00;0.00;;;18.40;74.20;;;;;;5028761;28;20041;-67
2022/07/18 00:52:36;;;;;;;0.00;0.00;;;18.30;74.10;;;;;;5011192;28;20045;-67
2022/07/18 00:55:04;;;;;;;0.00;0.00;;;18.30;74.20;;;;;;5028786;28;20087;-66
2022/07/18 00:57:30;;;;;;;0.00;0.00;;;18.30;73.90;;;;;;5011532;28;20080;-67
2022/07/18 01:02:40;;;;;;;0.00;0.00;;;18.20;74.20;;;;;;5023132;28;20081;-67
2022/07/18 01:05:08;;;;;;;0.00;0.00;;;18.20;74.00;;;;;;5028925;28;20092;-67
2022/07/18 01:07:35;;;;;;;0.00;0.00;;;18.20;73.90;;;;;;5028557;28;20050;-67
2022/07/18 01:10:01;;;;;;;0.00;0.00;;;18.20;74.20;;;;;;5029004;28;20153;-67
2022/07/18 01:12:26;;;;;;;0.00;0.00;;;18.10;74.30;;;;;;5028281;28;20045;-67
2022/07/18 01:14:53;;;;;;;0.00;0.00;;;18.10;74.90;;;;;;5028714;28;20483;-67
2022/07/18 01:17:19;;;;;;;0.00;0.00;;;18.10;74.80;;;;;;5028150;28;20049;-67
2022/07/18 01:19:45;;;;;;;0.00;0.00;;;18.10;74.80;;;;;;5028448;28;20045;-67
2022/07/18 01:22:13;;;;;;;0.00;0.00;;;18.10;74.60;;;;;;5028004;28;20038;-67
2022/07/18 01:24:40;;;;;;;0.00;0.00;;;18.10;74.60;;;;;;5028120;28;20034;-66
2022/07/18 01:27:06;;;;;;;0.00;0.00;;;18.00;74.30;;;;;;5028097;28;20116;-67
2022/07/18 01:29:31;;;;;;;0.00;0.00;;;18.00;74.60;;;;;;5028275;28;20140;-66
2022/07/18 01:32:04;;;;;;;0.00;0.00;;;18.00;74.70;;;;;;5028142;28;20422;-67
2022/07/18 01:34:30;;;;;;;0.00;0.00;;;18.00;74.80;;;;;;5028725;28;20376;-67
2022/07/18 01:36:56;;;;;;;0.00;0.00;;;17.90;75.30;;;;;;5028125;28;20053;-67
2022/07/18 01:39:21;;;;;;;0.00;0.00;;;17.90;75.00;;;;;;5028379;28;20053;-67
2022/07/18 01:41:58;;;;;;;0.00;0.00;;;17.90;74.90;;;;;;5028101;28;20057;-67
2022/07/18 01:44:24;;;;;;;0.00;0.00;;;17.80;75.10;;;;;;5028712;28;20041;-67
2022/07/18 01:46:51;;;;;;;0.00;0.00;;;17.90;75.00;;;;;;5010892;28;20116;-67
2022/07/18 01:49:17;;;;;;;0.00;0.00;;;17.80;75.10;;;;;;5028271;28;20034;-67
2022/07/18 01:51:51;;;;;;;0.00;0.00;;;17.80;75.10;;;;;;5028134;28;20085;-67
2022/07/18 01:54:20;;;;;;;0.00;0.00;;;17.80;75.50;;;;;;5028173;28;20088;-67
2022/07/18 01:56:45;;;;;;;0.00;0.00;;;17.70;75.50;;;;;;5028539;28;20037;-67
2022/07/18 01:59:11;;;;;;;0.00;0.00;;;17.70;75.20;;;;;;5027952;28;20042;-67
2022/07/18 02:01:37;;;;;;;0.00;0.00;;;17.70;75.00;;;;;;5029890;28;20037;-67
2022/07/18 02:04:02;;;;;;;0.08;0.08;;;17.60;75.00;;;;;;5032136;28;20037;-67
2022/07/18 02:06:28;;;;;;;0.00;0.00;;;17.60;74.90;;;;;;5031738;28;20391;-67
2022/07/18 02:08:54;;;;;;;0.00;0.00;;;17.60;75.00;;;;;;5032206;28;20120;-67
2022/07/18 02:11:19;;;;;;;0.10;0.10;;;17.60;74.80;;;;;;5031100;28;20839;-67
2022/07/18 02:13:45;;;;;;;0.45;0.45;;;17.60;75.00;;;;;;5032030;28;20514;-67
2022/07/18 02:16:10;;;;;;;0.00;0.00;;;17.50;75.00;;;;;;5028300;28;20041;-67
2022/07/18 02:18:36;;;;;;;0.00;0.00;;;17.50;75.00;;;;;;5031228;28;20072;-67
2022/07/18 02:21:02;;;;;;;0.00;0.00;;;17.50;75.20;;;;;;5014094;28;20050;-67
2022/07/18 02:23:28;;;;;;;0.00;0.00;;;17.50;75.50;;;;;;5013719;28;20465;-67
2022/07/18 02:25:55;;;;;;;0.00;0.00;;;17.40;75.70;;;;;;5013855;28;20041;-67
2022/07/18 02:28:21;;;;;;;0.00;0.00;;;17.40;75.90;;;;;;5031471;28;20033;-67
2022/07/18 02:30:48;;;;;;;0.00;0.00;;;17.40;75.50;;;;;;5031319;28;20037;-67
2022/07/18 02:33:14;;;;;;;0.00;0.00;;;17.40;75.60;;;;;;5030571;28;20598;-67
2022/07/18 02:35:40;;;;;;;0.00;0.00;;;17.30;75.70;;;;;;5031686;28;20128;-67
2022/07/18 02:38:06;;;;;;;0.00;0.00;;;17.30;75.70;;;;;;5031074;28;20144;-67
2022/07/18 02:40:32;;;;;;;0.00;0.00;;;17.30;75.50;;;;;;5031073;28;20048;-67
2022/07/18 02:42:57;;;;;;;0.00;0.00;;;17.30;75.70;;;;;;5031158;28;20041;-67
2022/07/18 02:45:23;;;;;;;0.00;0.00;;;17.30;75.50;;;;;;5031375;28;20037;-67
2022/07/18 02:47:49;;;;;;;0.00;0.00;;;17.30;75.60;;;;;;5030347;28;20040;-67
2022/07/18 02:50:15;;;;;;;0.00;0.00;;;17.20;75.50;;;;;;5030938;28;20556;-67
2022/07/18 02:52:41;;;;;;;0.00;0.00;;;17.20;75.30;;;;;;5030570;28;20057;-67
2022/07/18 02:55:08;;;;;;;0.00;0.00;;;17.20;75.20;;;;;;4997106;28;20029;-67
2022/07/18 02:57:33;;;;;;;0.00;0.00;;;17.10;75.40;;;;;;5030598;28;20041;-67
2022/07/18 02:59:59;;;;;;;0.00;0.00;;;17.10;75.60;;;;;;5030875;28;20045;-67
2022/07/18 03:02:26;;;;;;;0.00;0.00;;;17.10;75.40;;;;;;5029312;28;20092;-67
2022/07/18 03:04:52;;;;;;;0.00;0.00;;;17.10;75.50;;;;;;5030515;28;20034;-67
2022/07/18 03:07:18;;;;;;;0.00;0.00;;;17.10;75.50;;;;;;5030172;28;20043;-66
2022/07/18 03:09:43;;;;;;;0.00;0.00;;;17.10;75.50;;;;;;5030370;28;20033;-67
2022/07/18 03:12:09;;;;;;;0.00;0.00;;;17.10;75.20;;;;;;5030307;28;20037;-66
2022/07/18 03:14:35;;;;;;;0.00;0.00;;;17.10;75.20;;;;;;5030434;28;20285;-67
2022/07/18 03:17:00;;;;;;;0.28;0.28;;;17.10;75.10;;;;;;5029149;28;20049;-67
2022/07/18 03:19:26;;;;;;;0.00;0.00;;;17.10;74.80;;;;;;5029515;28;20042;-67
2022/07/18 03:21:52;;;;;;;0.00;0.00;;;17.00;74.80;;;;;;5030700;28;20124;-67
2022/07/18 03:24:17;;;;;;;0.00;0.00;;;17.00;75.10;;;;;;5030111;28;20115;-67
2022/07/18 03:26:43;;;;;;;0.00;0.00;;;17.00;75.20;;;;;;5030682;28;20056;-67
2022/07/18 03:29:10;;;;;;;0.00;0.00;;;17.00;75.00;;;;;;5029406;28;20095;-66
2022/07/18 03:31:36;;;;;;;0.00;0.00;;;17.00;75.10;;;;;;5030246;28;20045;-67
2022/07/18 03:34:02;;;;;;;0.00;0.00;;;17.00;75.10;;;;;;5029760;28;20040;-67
2022/07/18 03:36:28;;;;;;;0.08;0.08;;;17.00;74.90;;;;;;5030324;28;20059;-67
2022/07/18 03:38:53;;;;;;;0.00;0.00;;;17.00;74.60;;;;;;5012051;28;20041;-66
2022/07/18 03:41:19;;;;;;;0.00;0.00;;;17.00;74.80;;;;;;5029841;28;20037;-66
2022/07/18 03:43:44;;;;;;;0.00;0.00;;;17.00;74.60;;;;;;5030244;28;20049;-67
2022/07/18 03:46:10;;;;;;;0.22;0.22;;;17.00;74.70;;;;;;5028986;28;20506;-67
2022/07/18 03:48:36;;;;;;;0.10;0.10;;;16.90;74.60;;;;;;5029834;28;20040;-67
2022/07/18 03:51:02;;;;;;;0.00;0.00;;;17.00;74.50;;;;;;5029514;28;20422;-68
2022/07/18 03:53:29;;;;;;;0.00;0.00;;;16.90;74.40;;;;;;5029677;28;20052;-69
2022/07/18 03:55:55;;;;;;;0.00;0.00;;;16.90;74.40;;;;;;5029627;28;20049;-66
2022/07/18 03:58:20;;;;;;;0.00;0.00;;;16.90;74.50;;;;;;5025623;28;20434;-66
2022/07/18 04:00:46;;;;;;;0.00;0.00;;;16.90;74.60;;;;;;5028633;28;20041;-66
2022/07/18 04:03:12;;;;;;;0.00;0.00;;;16.80;74.60;;;;;;5028623;28;20100;-66
2022/07/18 04:05:38;;;;;;;0.00;0.00;;;16.90;74.50;;;;;;5028837;28;20048;-66
2022/07/18 04:08:04;;;;;;;0.25;0.25;;;16.80;74.50;;;;;;5023658;28;20057;-66
2022/07/18 04:10:29;;;;;;;0.00;0.00;;;16.80;74.30;;;;;;5009718;28;20368;-66
2022/07/18 04:12:56;;;;;;;0.00;0.00;;;16.90;74.30;;;;;;5010795;28;20057;-66
2022/07/18 04:15:25;;;;;;;0.00;0.00;;;16.90;74.30;;;;;;5027971;28;20120;-67
2022/07/18 04:17:52;;;;;;;0.00;0.00;;;16.90;74.20;;;;;;5060300;22;20410;-66
2022/07/18 04:20:19;;;;;;;0.00;0.00;;;16.90;74.10;;;;;;5048431;28;20045;-66
2022/07/18 04:22:48;;;;;;;0.00;0.00;;;16.90;74.00;;;;;;5048205;28;20326;-66
2022/07/18 04:25:14;;;;;;;0.00;0.00;;;16.90;74.20;;;;;;5029403;28;20493;-66
2022/07/18 04:27:39;;;;;;;0.00;0.00;;;17.00;74.20;;;;;;5047181;28;20053;-66
2022/07/18 04:30:06;;;;;;;0.00;0.00;;;17.10;75.00;;;;;;5042481;28;20108;-66
2022/07/18 04:32:31;;;;;;;0.00;0.00;;;17.20;74.60;;;;;;5047678;28;20136;-66
2022/07/18 04:34:57;;;;;;;0.00;0.00;;;17.20;74.40;;;;;;5048484;28;20171;-66
2022/07/18 04:37:23;;;;;;;0.00;0.00;;;17.30;74.40;;;;;;5030369;28;20080;-66
2022/07/18 04:39:48;;;;;;;0.00;0.00;;;17.20;74.20;;;;;;5048370;28;20048;-66
2022/07/18 04:42:14;;;;;;;0.00;0.00;;;17.30;74.20;;;;;;5047597;28;20103;-66
2022/07/18 04:44:39;;;;;;;0.00;0.00;;;17.30;74.10;;;;;;5031289;28;20499;-67
2022/07/18 04:47:05;;;;;;;0.00;0.00;;;17.30;74.30;;;;;;5047087;28;20045;-67
2022/07/18 04:49:31;;;;;;;0.00;0.00;;;17.30;74.20;;;;;;5047273;28;20053;-67
2022/07/18 04:51:56;;;;;;;0.00;0.00;;;17.30;74.30;;;;;;5030318;28;20128;-67
2022/07/18 04:54:22;;;;;;;0.00;0.00;;;17.30;74.30;;;;;;5030131;28;20045;-67
2022/07/18 04:56:47;;;;;;;0.15;0.15;;;17.40;74.30;;;;;;5047708;28;20481;-67
2022/07/18 04:59:13;;;;;;;0.00;0.00;;;17.40;74.40;;;;;;5047504;28;20040;-67
2022/07/18 05:01:38;;;;;;;0.00;0.00;;;17.40;74.30;;;;;;5047739;28;20568;-67
2022/07/18 05:04:04;;;;;;;0.00;0.00;;;17.50;74.50;;;;;;5047193;28;20244;-66
2022/07/18 05:06:30;;;;;;;0.00;0.00;;;17.50;74.40;;;;;;5048397;28;20530;-67
2022/07/18 05:08:55;;;;;;;0.00;0.00;;;17.60;74.40;;;;;;5047497;28;20040;-67
2022/07/18 05:11:21;;;;;;;0.00;0.00;;;17.60;74.60;;;;;;5047190;28;20355;-66
2022/07/18 05:13:47;;;;;;;0.00;0.00;;;17.60;74.70;;;;;;5046889;28;20045;-67
2022/07/18 05:16:12;;;;;;;0.00;0.00;;;17.70;74.80;;;;;;5047834;28;20041;-66
2022/07/18 05:18:38;;;;;;;0.00;0.00;;;17.80;74.90;;;;;;5047439;28;20049;-67
2022/07/18 05:21:03;;;;;;;0.00;0.00;;;17.80;74.90;;;;;;5047108;28;20406;-67
2022/07/18 05:23:29;;;;;;;0.00;0.00;;;17.80;74.80;;;;;;5047153;28;20048;-66
2022/07/18 05:25:54;;;;;;;0.00;0.00;;;17.80;74.80;;;;;;5046588;28;20402;-67
2022/07/18 05:28:20;;;;;;;0.00;0.00;;;17.90;74.70;;;;;;5047537;28;20049;-67
2022/07/18 05:30:46;;;;;;;0.00;0.00;;;17.90;74.80;;;;;;5029739;28;20538;-67
2022/07/18 05:33:11;;;;;;;0.00;0.00;;;17.90;74.90;;;;;;5013131;28;20057;-67
2022/07/18 05:35:37;;;;;;;0.00;0.00;;;18.00;75.00;;;;;;5047212;28;20041;-66
2022/07/18 05:38:03;;;;;;;0.00;0.00;;;18.00;74.60;;;;;;5051200;28;20055;-67
2022/07/18 05:40:28;;;;;;;0.00;0.00;;;18.10;74.50;;;;;;5049447;28;20033;-66
2022/07/18 05:42:54;;;;;;;0.00;0.00;;;18.10;74.50;;;;;;5046049;28;20041;-66
2022/07/18 05:45:21;;;;;;;0.00;0.00;;;18.10;73.80;;;;;;5050469;28;20095;-66
2022/07/18 05:47:46;;;;;;;0.20;0.20;;;18.20;73.30;;;;;;5050495;28;20048;-66
2022/07/18 05:50:12;;;;;;;0.00;0.00;;;18.20;72.40;;;;;;5050460;28;20784;-66
2022/07/18 05:52:38;;;;;;;0.00;0.00;;;18.30;72.10;;;;;;5051465;28;20049;-67
2022/07/18 06:02:26;;;;;;;0.00;0.00;;;18.50;71.20;;;;;;5045754;28;20402;-66
2022/07/18 06:04:51;;;;;;;0.00;0.00;;;18.50;70.90;;;;;;5043745;28;20037;-67
2022/07/18 06:07:17;;;;;;;1.02;0.28;;;18.60;70.80;;;;;;5050778;28;20186;-67
2022/07/18 06:09:42;;;;;;;0.00;0.00;;;18.60;70.50;;;;;;5051827;28;20460;-66
2022/07/18 06:12:08;;;;;;;0.00;0.00;;;18.70;70.50;;;;;;5050428;28;20053;-67
2022/07/18 06:14:34;;;;;;;0.00;0.00;;;18.70;70.40;;;;;;5051105;28;20051;-67
2022/07/18 06:17:00;;;;;;;0.00;0.00;;;18.80;70.30;;;;;;5051081;28;20045;-67
2022/07/18 06:19:26;;;;;;;0.00;0.00;;;18.90;70.10;;;;;;5050615;28;20045;-67
2022/07/18 06:21:52;;;;;;;0.00;0.00;;;19.00;70.00;;;;;;5051178;28;20057;-67
2022/07/18 06:24:18;;;;;;;0.68;0.45;;;19.00;69.30;;;;;;5049933;28;20032;-67
2022/07/18 06:26:43;;;;;;;0.00;0.00;;;19.00;69.10;;;;;;5057546;28;20053;-67
2022/07/18 06:29:10;;;;;;;0.00;0.00;;;19.00;69.10;;;;;;5049836;28;20049;-67
2022/07/18 06:31:36;;;;;;;0.00;0.00;;;19.10;68.80;;;;;;5033328;28;20520;-66
2022/07/18 06:34:02;;;;;;;0.00;0.00;;;19.20;69.70;;;;;;5046990;28;20120;-65
2022/07/18 06:36:28;;;;;;;0.08;0.08;;;19.40;69.90;;;;;;5046458;28;20915;-65
2022/07/18 06:38:53;;;;;;;0.00;0.00;;;19.70;69.10;;;;;;5046320;28;20076;-69
2022/07/18 06:41:19;;;;;;;0.00;0.00;;;19.90;68.20;;;;;;5025894;28;20146;-67
2022/07/18 06:43:45;;;;;;;0.00;0.00;;;20.10;67.50;;;;;;5043765;28;20052;-68
2022/07/18 06:46:11;;;;;;;0.00;0.00;;;20.20;66.90;;;;;;5048675;28;20056;-67
2022/07/18 06:48:36;;;;;;;0.00;0.00;;;20.20;66.90;;;;;;5023086;28;20045;-67
2022/07/18 06:51:04;;;;;;;0.00;0.00;;;20.20;66.70;;;;;;5040851;28;20033;-67
2022/07/18 06:53:31;;;;;;;0.00;0.00;;;20.30;66.80;;;;;;5049144;28;20049;-67
2022/07/18 06:55:57;;;;;;;0.00;0.00;;;20.40;66.40;;;;;;5049503;28;20036;-69
2022/07/18 06:58:23;;;;;;;0.00;0.00;;;20.40;66.20;;;;;;5047221;28;20045;-68
2022/07/18 07:00:49;;;;;;;0.00;0.00;;;20.40;66.30;;;;;;5048736;28;20044;-68
2022/07/18 07:03:15;;;;;;;0.10;0.10;;;20.30;66.20;;;;;;5048939;28;20051;-68
2022/07/18 07:05:41;;;;;;;0.00;0.00;;;20.40;66.10;;;;;;5050062;28;20044;-68
2022/07/18 07:08:07;;;;;;;0.00;0.00;;;20.40;65.40;;;;;;5048839;28;20045;-68
2022/07/18 07:10:32;;;;;;;0.08;0.08;;;20.40;65.40;;;;;;5029929;28;20402;-67
2022/07/18 07:12:58;;;;;;;0.00;0.00;;;20.40;65.40;;;;;;5049029;28;20521;-66
2022/07/18 07:15:24;;;;;;;0.32;0.32;;;20.50;66.00;;;;;;5049271;28;20072;-64
2022/07/18 07:17:50;;;;;;;0.00;0.00;;;20.50;66.00;;;;;;5049287;28;20399;-68
2022/07/18 07:20:18;;;;;;;0.00;0.00;;;20.60;65.40;;;;;;5048481;28;20053;-66
2022/07/18 07:22:52;;;;;;;0.00;0.00;;;20.60;65.10;;;;;;5049760;28;20040;-67
2022/07/18 07:25:18;;;;;;;0.00;0.00;;;20.60;65.10;;;;;;5050186;28;20701;-66
2022/07/18 07:27:44;;;;;;;0.08;0.08;;;20.60;64.50;;;;;;5049873;28;20086;-66
2022/07/18 07:30:12;;;;;;;0.00;0.00;;;20.60;64.70;;;;;;5052670;28;20091;-66
2022/07/18 07:32:39;;;;;;;0.00;0.00;;;20.60;64.50;;;;;;5049358;28;20041;-66
2022/07/18 07:35:11;;;;;;;0.00;0.00;;;20.70;65.10;;;;;;5048940;28;20612;-67
2022/07/18 07:37:42;;;;;;;0.00;0.00;;;20.70;64.50;;;;;;5044854;28;20065;-66
2022/07/18 07:40:08;;;;;;;0.00;0.00;;;20.80;65.10;;;;;;5049456;28;20393;-66
2022/07/18 07:42:34;;;;;;;0.00;0.00;;;20.90;64.70;;;;;;5033642;28;20045;-67
2022/07/18 07:45:00;;;;;;;0.00;0.00;;;21.00;64.20;;;;;;5049939;28;20090;-68
2022/07/18 07:47:26;;;;;;;0.00;0.00;;;21.00;63.80;;;;;;5049963;28;20160;-69
2022/07/18 07:49:52;;;;;;;0.00;0.00;;;21.10;63.80;;;;;;5050101;28;20108;-69
2022/07/18 07:52:19;;;;;;;0.00;0.00;;;21.20;62.80;;;;;;5049688;28;20081;-68
2022/07/18 07:54:44;;;;;;;0.00;0.00;;;21.30;62.10;;;;;;5048712;28;20124;-68
2022/07/18 07:57:11;;;;;;;0.00;0.00;;;21.50;62.50;;;;;;5048785;28;20139;-68
2022/07/18 07:59:36;;;;;;;0.73;0.38;;;21.50;62.60;;;;;;5046474;28;20068;-68
2022/07/18 08:02:02;;;;;;;0.10;0.10;;;21.60;61.00;;;;;;5050573;28;20097;-68
2022/07/18 08:04:28;;;;;;;0.00;0.00;;;21.80;59.40;;;;;;5048239;28;20394;-73
2022/07/18 08:06:53;;;;;;;0.00;0.00;;;21.90;59.10;;;;;;5048861;28;20048;-67
2022/07/18 08:09:19;;;;;;;0.00;0.00;;;22.00;58.30;;;;;;5048813;28;20033;-71
2022/07/18 08:11:45;;;;;;;0.00;0.00;;;22.10;57.80;;;;;;5048324;28;20859;-70
2022/07/18 08:14:10;;;;;;;0.20;0.20;;;22.20;57.10;;;;;;5047956;28;20036;-68
2022/07/18 08:16:36;;;;;;;0.00;0.00;;;22.40;58.00;;;;;;5045888;28;20129;-68
2022/07/18 08:19:02;;;;;;;0.00;0.00;;;22.50;57.20;;;;;;5048607;28;20371;-69
2022/07/18 08:21:27;;;;;;;0.00;0.00;;;22.60;55.00;;;;;;5045104;28;20080;-69
2022/07/18 08:23:53;;;;;;;0.03;0.03;;;22.70;56.00;;;;;;5046451;28;20037;-69
2022/07/18 08:26:19;;;;;;;0.85;0.47;;;22.90;53.30;;;;;;5033814;28;20105;-67
2022/07/18 08:28:44;;;;;;;0.00;0.00;;;22.90;53.60;;;;;;5040833;28;20048;-68
2022/07/18 08:31:10;;;;;;;0.00;0.00;;;23.00;52.60;;;;;;5027469;28;20039;-68
2022/07/18 08:33:36;;;;;;;0.00;0.00;;;23.00;53.00;;;;;;5030211;28;20393;-68
2022/07/18 08:36:01;;;;;;;0.00;0.00;;;23.00;53.80;;;;;;5047876;28;20080;-69
2022/07/18 08:38:27;;;;;;;0.00;0.00;;;23.00;53.90;;;;;;5047807;28;20037;-68
2022/07/18 08:40:54;;;;;;;0.00;0.00;;;23.00;52.80;;;;;;5047482;28;20091;-68
2022/07/18 08:43:20;;;;;;;0.00;0.00;;;23.10;53.70;;;;;;5030793;28;20039;-68
2022/07/18 08:45:46;;;;;;;0.00;0.00;;;23.30;55.40;;;;;;5047383;28;20049;-68
2022/07/18 08:48:17;;;;;;;0.00;0.00;;;23.30;54.60;;;;;;5046406;28;20105;-68
2022/07/18 08:50:46;;;;;;;0.00;0.00;;;23.50;52.60;;;;;;5046989;28;20080;-68
2022/07/18 08:53:13;;;;;;;0.00;0.00;;;23.60;55.40;;;;;;5051827;28;20060;-68
2022/07/18 08:55:39;;;;;;;9.10;0.57;;;23.70;54.20;;;;;;5048262;28;20047;-68
2022/07/18 08:58:04;;;;;;;0.00;0.00;;;23.70;52.10;;;;;;5049558;28;20033;-68
2022/07/18 09:00:30;;;;;;;0.00;0.00;;;23.80;54.00;;;;;;5048125;28;20099;-68
2022/07/18 09:03:00;;;;;;;0.00;0.00;;;23.80;50.90;;;;;;5047596;28;20414;-68
2022/07/18 09:05:26;;;;;;;0.10;0.10;;;23.90;51.00;;;;;;5047733;28;20045;-68
2022/07/18 09:08:06;;;;;;;0.00;0.00;;;23.90;51.00;;;;;;5047755;28;20045;-69
2022/07/18 09:11:01;;;;;;;0.00;0.00;;;24.00;50.40;;;;;;5050642;28;20470;-68
2022/07/18 09:13:42;;;;;;;0.00;0.00;;;24.00;49.40;;;;;;5044039;28;20079;-68
2022/07/18 09:16:13;;;;;;;0.10;0.10;;;24.10;48.50;;;;;;5034001;28;20048;-67
2022/07/18 09:18:47;;;;;;;;;;;24.20;48.30;;;;;;5052206;28;20120;-68
2022/07/18 09:21:20;;;;;;;0.00;0.00;;;24.20;48.20;;;;;;5051096;28;19920;-66
2022/07/18 09:23:51;;;;;;;0.00;0.00;;;24.30;50.30;;;;;;5051037;28;20116;-67
2022/07/18 09:26:35;;;;;;;;;;;24.30;48.50;;;;;;5029329;28;20183;-67
2022/07/18 09:29:01;;;;;;;0.00;0.00;;;24.40;46.50;;;;;;5033688;28;19929;-66
2022/07/18 09:31:27;;;;;;;0.00;0.00;;;24.50;48.70;;;;;;5051703;28;20037;-67
2022/07/18 09:34:00;;;;;;;0.00;0.00;;;24.50;47.60;;;;;;5051432;28;20837;-67
2022/07/18 09:36:27;;;;;;;0.00;0.00;;;24.60;48.10;;;;;;5030042;28;20056;-67
2022/07/18 09:38:53;;;;;;;0.03;0.03;;;24.70;49.20;;;;;;5047050;28;20048;-67
2022/07/18 09:41:29;;;;;;;0.00;0.00;;;24.80;46.40;;;;;;5051691;28;20041;-67
2022/07/18 09:43:56;;;;;;;0.63;0.63;;;24.90;48.70;;;;;;5050506;28;20586;-67
2022/07/18 09:46:22;;;;;;;0.00;0.00;;;25.00;48.50;;;;;;5051076;28;20124;-66
2022/07/18 09:49:07;;;;;;;0.00;0.00;;;25.00;46.90;;;;;;5055956;28;20041;-67
2022/07/18 09:51:32;;;;;;;0.00;0.00;;;25.10;46.30;;;;;;5041606;28;20502;-67
2022/07/18 09:54:01;;;;;;;0.00;0.00;;;25.10;48.20;;;;;;5042762;28;20056;-67
2022/07/18 09:56:27;;;;;;;0.10;0.10;;;25.10;45.50;;;;;;5051213;28;20080;-67
2022/07/18 09:58:54;;;;;;;0.00;0.00;;;25.20;46.60;;;;;;5051235;28;20051;-67
2022/07/18 10:01:21;;;;;;;0.00;0.00;;;25.20;46.10;;;;;;5051501;28;20083;-67
2022/07/18 10:03:48;;;;;;;0.00;0.00;;;25.20;46.90;;;;;;5032322;28;20045;-66
2022/07/18 10:06:15;;;;;;;0.00;0.00;;;25.20;45.80;;;;;;5050995;28;20279;-68
2022/07/18 10:08:41;;;;;;;0.00;0.00;;;25.10;45.50;;;;;;5050752;28;20116;-66
2022/07/18 10:11:08;;;;;;;0.00;0.00;;;25.20;47.80;;;;;;5050759;28;20128;-66
2022/07/18 10:13:35;;;;;;;0.00;0.00;;;25.20;47.10;;;;;;5033008;28;20051;-67
2022/07/18 10:16:01;;;;;;;0.00;0.00;;;25.20;48.10;;;;;;5051060;28;20040;-66
2022/07/18 10:18:33;;;;;;;0.00;0.00;;;25.30;48.40;;;;;;5049716;28;20051;-68
2022/07/18 10:21:02;;;;;;;0.52;0.52;;;25.30;46.20;;;;;;5032708;28;20132;-68
2022/07/18 10:23:39;;;;;;;0.00;0.00;;;25.40;47.90;;;;;;5031327;28;20106;-66
2022/07/18 10:26:19;;;;;;;0.20;0.20;;;25.50;47.20;;;;;;5053591;28;20091;-66
2022/07/18 10:28:59;;;;;;;0.20;0.17;;;25.50;44.90;;;;;;5047996;28;20037;-66
2022/07/18 10:31:39;;;;;;;0.00;0.00;;;25.50;45.50;;;;;;5035994;28;20125;-67
2022/07/18 10:34:04;;;;;;;0.10;0.10;;;25.60;45.00;;;;;;5047190;28;20052;-67
2022/07/18 10:36:30;;;;;;;0.00;0.00;;;25.70;46.20;;;;;;5050442;28;20037;-67
2022/07/18 10:39:07;;;;;;;0.00;0.00;;;25.70;43.90;;;;;;5050633;28;20089;-67
2022/07/18 10:41:43;;;;;;;0.08;0.08;;;25.80;44.30;;;;;;5019819;28;20041;-68
2022/07/18 10:44:24;;;;;;;0.00;0.00;;;25.80;44.90;;;;;;5033372;28;20128;-68
2022/07/18 10:49:52;;;;;;;0.13;0.13;;;25.90;42.70;;;;;;5052154;28;20045;-68
2022/07/18 10:52:30;;;;;;;0.00;0.00;;;25.90;44.30;;;;;;5050416;28;20048;-68
2022/07/18 10:57:35;;;;;;;0.00;0.00;;;26.00;45.10;;;;;;5052894;28;20135;-68
2022/07/18 11:00:11;;;;;;;0.00;0.00;;;26.20;42.30;;;;;;5068275;28;20466;-68
2022/07/18 11:02:39;;;;;;;0.10;0.10;;;26.30;45.80;;;;;;5030175;28;20060;-68
2022/07/18 11:05:26;;;;;;;0.00;0.00;;;26.30;44.70;;;;;;5032307;28;20087;-68
2022/07/18 11:07:58;;;;;;;0.00;0.00;;;26.30;45.80;;;;;;5050556;28;20089;-68
2022/07/18 11:10:45;;;;;;;0.00;0.00;;;26.30;44.90;;;;;;5050724;28;20044;-68
2022/07/18 11:16:06;;;;;;;0.00;0.00;;;26.30;42.20;;;;;;5042412;28;20411;-68
2022/07/18 11:18:55;;;;;;;0.00;0.00;;;26.30;44.80;;;;;;5008927;28;20053;-70
2022/07/18 11:21:32;;;;;;;0.00;0.00;;;26.30;42.40;;;;;;5015508;28;20387;-70
2022/07/18 11:24:08;;;;;;;1.00;0.73;;;26.30;44.60;;;;;;5023435;28;20104;-69
2022/07/18 11:26:36;;;;;;;0.00;0.00;;;26.30;43.00;;;;;;5028219;28;20048;-68
2022/07/18 11:29:03;;;;;;;0.22;0.22;;;26.30;43.30;;;;;;5029027;28;20407;-69
2022/07/18 11:31:30;;;;;;;0.00;0.00;;;26.30;43.90;;;;;;5029258;28;20045;-70
2022/07/18 11:33:58;;;;;;;0.00;0.00;;;26.40;42.90;;;;;;5028888;28;20498;-68
2022/07/18 11:36:30;;;;;;;0.00;0.00;;;26.60;43.80;;;;;;5029209;28;20057;-68
2022/07/18 11:39:03;;;;;;;1.75;0.75;;;26.80;43.80;;;;;;5029854;28;20124;-69
2022/07/18 11:41:29;;;;;;;0.00;0.00;;;26.80;42.30;;;;;;5029219;28;20175;-66
2022/07/18 11:43:56;;;;;;;0.00;0.00;;;27.00;43.80;;;;;;5029498;28;20132;-66
2022/07/18 11:46:23;;;;;;;0.00;0.00;;;27.00;43.50;;;;;;5027706;28;20049;-66
2022/07/18 11:49:02;;;;;;;0.00;0.00;;;27.00;40.80;;;;;;5030187;28;20518;-67
2022/07/18 11:51:38;;;;;;;0.00;0.00;;;27.00;40.90;;;;;;5030503;28;20060;-66
2022/07/18 11:54:05;;;;;;;0.00;0.00;;;27.10;42.00;;;;;;5029296;28;20041;-66
2022/07/18 11:56:31;;;;;;;0.00;0.00;;;27.20;42.60;;;;;;5028224;28;20049;-67
2022/07/18 11:58:57;;;;;;;0.00;0.00;;;27.20;39.00;;;;;;5029954;28;20392;-67
2022/07/18 12:01:32;;;;;;;0.00;0.00;;;27.20;41.70;;;;;;5028143;28;20049;-66
2022/07/18 12:03:58;;;;;;;0.00;0.00;;;27.20;40.60;;;;;;5029920;28;20799;-66
2022/07/18 12:06:24;;;;;;;0.00;0.00;;;27.20;42.70;;;;;;5029429;28;20045;-66
2022/07/18 12:08:52;;;;;;;0.08;0.08;;;27.20;42.50;;;;;;5029799;28;20072;-66
2022/07/18 12:11:29;;;;;;;0.00;0.00;;;27.10;41.60;;;;;;5029505;28;20053;-66
2022/07/18 12:13:59;;;;;;;0.08;0.08;;;27.00;39.90;;;;;;5029227;28;20045;-66
2022/07/18 12:16:40;;;;;;;1.70;0.28;;;27.00;40.70;;;;;;5029825;28;20113;-66
2022/07/18 12:19:24;;;;;;;0.00;0.00;;;27.00;42.50;;;;;;5039250;28;20041;-70
2022/07/18 12:22:02;;;;;;;0.00;0.00;;;27.00;42.60;;;;;;5049285;28;20040;-70
2022/07/18 12:24:56;;;;;;;0.10;0.10;;;27.00;40.60;;;;;;5034659;28;20045;-68
2022/07/18 12:27:33;;;;;;;1.25;0.32;;;27.00;41.60;;;;;;5041896;28;20555;-68
2022/07/18 12:30:19;;;;;;;0.00;0.00;;;27.10;42.40;;;;;;5050118;28;20045;-68
2022/07/18 12:33:00;;;;;;;0.00;0.00;;;27.30;41.20;;;;;;5033312;28;20041;-68
2022/07/18 12:35:36;;;;;;;0.00;0.00;;;27.50;42.30;;;;;;5050005;28;20543;-68
2022/07/18 12:38:15;;;;;;;0.28;0.28;;;27.50;42.60;;;;;;5049891;28;20084;-68
2022/07/18 12:40:59;;;;;;;0.00;0.00;;;27.50;40.20;;;;;;5032352;28;20406;-69
2022/07/18 12:43:33;;;;;;;0.00;0.00;;;27.30;41.10;;;;;;5048676;28;20045;-68
2022/07/18 12:46:01;;;;;;;0.00;0.00;;;27.10;41.10;;;;;;5048688;28;20100;-68
2022/07/18 12:48:28;;;;;;;0.00;0.00;;;27.00;41.50;;;;;;5048749;28;20036;-67
2022/07/18 12:51:11;;;;;;;0.60;0.38;;;27.00;42.10;;;;;;5030555;28;20045;-66
2022/07/18 12:53:38;;;;;;;0.00;0.00;;;26.90;41.80;;;;;;5014555;28;20045;-66
2022/07/18 12:56:05;;;;;;;0.00;0.00;;;26.90;42.60;;;;;;5049344;28;20039;-66
2022/07/18 12:58:30;;;;;;;0.00;0.00;;;27.00;43.20;;;;;;5048799;28;20087;-67
2022/07/18 13:00:56;;;;;;;0.00;0.00;;;26.90;41.70;;;;;;5048718;28;20045;-67
2022/07/18 13:03:22;;;;;;;0.00;0.00;;;26.90;42.40;;;;;;5052676;28;20045;-66
2022/07/18 13:05:48;;;;;;;0.00;0.00;;;26.90;42.40;;;;;;5036244;28;20048;-66
2022/07/18 13:08:14;;;;;;;0.00;0.00;;;26.90;42.80;;;;;;5028826;28;20033;-67
2022/07/18 13:10:41;;;;;;;0.00;0.00;;;26.90;42.70;;;;;;5046404;28;20052;-66